Time;durP1;ratioP1;P1;durP2;ratioP2;P2;SDS_P1;SDS_P2;PMS_P1;PMS_P2;Temp;Humidity;BMP_temperature;BMP_pressure;BME280_temperature;BME280_humidity;BME280_pressure;Samples;Min_cycle;Max_cycle;Signal;HPM_P1;HPM_P2
2021/08/03 00:00:51;;;;;;;;;;;;;;;25.91;53.00;100254.53;457117;112;922674;-77
2021/08/03 00:01:55;;;;;;;;;;;;;;;25.91;53.08;100255.35;456957;113;922893;-77
2021/08/03 00:03:01;;;;;;;;;;;;;;;25.91;53.10;100255.35;455484;113;923104;-77
2021/08/03 00:04:10;;;;;;;;;;;;;;;25.91;53.13;100260.94;456881;113;922717;-76
2021/08/03 00:05:15;;;;;;;;;;;;;;;25.92;53.14;100262.56;456361;112;923752;-76
2021/08/03 00:06:20;;;;;;;;;;;;;;;25.92;53.08;100268.15;456079;114;922651;-77
2021/08/03 00:07:24;;;;;;;;;;;;;;;25.93;53.09;100268.98;456223;113;922663;-78
2021/08/03 00:08:28;;;;;;;;;;;;;;;25.92;53.08;100258.94;455661;114;922693;-78
2021/08/03 00:09:32;;;;;;;;;;;;;;;25.92;53.09;100265.36;457257;113;922711;-78
2021/08/03 00:10:36;;;;;;;;;;;;;;;25.92;53.12;100258.94;457472;114;922825;-77
2021/08/03 00:11:41;;;;;;;;;;;;;;;25.92;53.18;100265.36;454603;114;922707;-77
2021/08/03 00:12:49;;;;;;;;;;;;;;;25.92;53.28;100264.53;457187;113;922642;-76
2021/08/03 00:13:53;;;;;;;;;;;;;;;25.91;53.32;100260.11;455989;113;923178;-77
2021/08/03 00:14:56;;;;;;;;;;;;;;;25.89;53.30;100270.78;459308;112;922656;-77
2021/08/03 00:16:06;;;;;;;;;;;;;;;25.87;53.43;100273.06;456314;115;922659;-77
2021/08/03 00:17:11;;;;;;;;;;;;;;;25.85;53.42;100264.20;456959;113;923739;-77
2021/08/03 00:18:17;;;;;;;;;;;;;;;25.86;53.66;100271.44;458027;114;922666;-77
2021/08/03 00:19:27;;;;;;;;;;;;;;;25.83;53.76;100264.52;456744;114;922978;-77
2021/08/03 00:20:30;;;;;;;;;;;;;;;25.82;53.86;100265.66;456400;113;922648;-77
2021/08/03 00:21:34;;;;;;;;;;;;;;;25.80;53.79;100261.56;456673;113;923031;-78
2021/08/03 00:22:37;;;;;;;;;;;;;;;25.78;53.83;100255.47;456773;114;921470;-78
2021/08/03 00:23:42;;;;;;;;;;;;;;;25.76;53.91;100258.57;457760;113;921452;-78
2021/08/03 00:24:47;;;;;;;;;;;;;;;25.74;54.07;100255.30;455819;113;921478;-78
2021/08/03 00:25:52;;;;;;;;;;;;;;;25.71;54.18;100256.76;455162;112;922984;-78
2021/08/03 00:26:56;;;;;;;;;;;;;;;25.68;54.33;100253.80;457121;112;921654;-78
2021/08/03 00:28:00;;;;;;;;;;;;;;;25.66;54.42;100253.28;455607;115;921896;-77
2021/08/03 00:29:03;;;;;;;;;;;;;;;25.64;54.46;100255.56;455436;113;921474;-78
2021/08/03 00:30:07;;;;;;;;;;;;;;;25.62;54.55;100247.53;456213;113;921426;-78
2021/08/03 00:31:12;;;;;;;;;;;;;;;25.60;54.63;100244.23;458340;112;921608;-78
2021/08/03 00:32:17;;;;;;;;;;;;;;;25.59;54.67;100247.34;457497;113;922069;-78
2021/08/03 00:33:20;;;;;;;;;;;;;;;25.57;54.76;100244.89;456091;113;921381;-78
2021/08/03 00:34:24;;;;;;;;;;;;;;;25.53;54.85;100243.84;458125;114;921403;-78
2021/08/03 00:35:27;;;;;;;;;;;;;;;25.52;54.93;100242.22;459818;112;921474;-78
2021/08/03 00:36:31;;;;;;;;;;;;;;;25.51;54.96;100245.32;455283;114;921574;-78
2021/08/03 00:37:36;;;;;;;;;;;;;;;25.48;55.05;100234.78;456129;114;922707;-78
2021/08/03 00:38:40;;;;;;;;;;;;;;;25.46;55.16;100237.92;457419;112;923850;-78
2021/08/03 00:39:43;;;;;;;;;;;;;;;25.47;55.23;100236.75;457346;114;922638;-77
2021/08/03 00:40:53;;;;;;;;;;;;;;;25.47;55.27;100236.75;456088;113;922895;-78
2021/08/03 00:42:00;;;;;;;;;;;;;;;25.49;55.29;100236.44;455126;113;924307;-76
2021/08/03 00:43:04;;;;;;;;;;;;;;;25.50;55.25;100238.09;456991;114;921581;-78
2021/08/03 00:44:07;;;;;;;;;;;;;;;25.50;55.25;100232.50;457317;114;924166;-76
2021/08/03 00:45:11;;;;;;;;;;;;;;;25.51;55.17;100231.36;456275;114;923391;-77
2021/08/03 00:46:16;;;;;;;;;;;;;;;25.52;55.07;100241.39;456889;114;922656;-77
2021/08/03 00:47:20;;;;;;;;;;;;;;;25.52;54.96;100238.59;455838;113;922718;-79
2021/08/03 00:48:25;;;;;;;;;;;;;;;25.53;54.95;100243.01;456194;114;922662;-76
2021/08/03 00:49:29;;;;;;;;;;;;;;;25.53;54.88;100237.42;454470;115;922839;-76
2021/08/03 00:50:32;;;;;;;;;;;;;;;25.54;54.86;100230.70;457018;113;924001;-77
2021/08/03 00:51:36;;;;;;;;;;;;;;;25.56;54.83;100239.63;457091;113;924036;-76
2021/08/03 00:52:42;;;;;;;;;;;;;;;25.55;54.82;100240.73;456646;113;923279;-76
2021/08/03 00:53:46;;;;;;;;;;;;;;;25.55;54.84;100247.14;455638;114;922644;-77
2021/08/03 00:54:50;;;;;;;;;;;;;;;25.56;54.87;100248.00;456457;114;922748;-76
2021/08/03 00:55:53;;;;;;;;;;;;;;;25.56;55.02;100268.37;456719;113;922612;-77
2021/08/03 00:56:58;;;;;;;;;;;;;;;25.54;55.35;100261.41;456045;114;922664;-79
2021/08/03 00:58:01;;;;;;;;;;;;;;;25.48;55.47;100243.16;456405;113;922683;-77
2021/08/03 00:59:05;;;;;;;;;;;;;;;25.42;55.59;100241.65;448950;115;923027;-77
2021/08/03 01:00:09;;;;;;;;;;;;;;;25.38;55.71;100244.27;449005;115;922727;-77
2021/08/03 01:01:13;;;;;;;;;;;;;;;25.35;55.85;100247.72;439570;118;923510;-77
2021/08/03 01:02:17;;;;;;;;;;;;;;;25.34;55.88;100251.65;439543;120;922638;-77
2021/08/03 01:03:21;;;;;;;;;;;;;;;25.33;56.03;100248.03;445640;116;922805;-77
2021/08/03 01:04:24;;;;;;;;;;;;;;;25.32;55.91;100242.77;446031;116;922660;-77
2021/08/03 01:05:30;;;;;;;;;;;;;;;25.31;55.98;100241.11;438455;118;924830;-77
2021/08/03 01:06:36;;;;;;;;;;;;;;;25.29;56.17;100241.45;438814;117;921545;-76
2021/08/03 01:07:41;;;;;;;;;;;;;;;25.26;56.23;100244.87;445533;116;921539;-76
2021/08/03 01:08:48;;;;;;;;;;;;;;;25.25;56.20;100253.58;446270;116;922662;-78
2021/08/03 01:09:57;;;;;;;;;;;;;;;25.25;56.11;100251.59;444210;116;923076;-77
2021/08/03 01:11:05;;;;;;;;;;;;;;;25.26;56.12;100249.63;444171;116;922705;-77
2021/08/03 01:12:12;;;;;;;;;;;;;;;25.28;56.05;100248.17;446048;116;922600;-76
2021/08/03 01:13:23;;;;;;;;;;;;;;;25.29;55.93;100247.03;443747;116;922729;-76
2021/08/03 01:14:34;;;;;;;;;;;;;;;25.32;55.88;100242.77;444890;116;922726;-77
2021/08/03 01:15:42;;;;;;;;;;;;;;;25.33;55.86;100244.41;446788;116;922643;-76
2021/08/03 01:17:00;;;;;;;;;;;;;;;25.33;55.83;100256.41;430554;118;922773;-77
2021/08/03 01:18:18;;;;;;;;;;;;;;;25.34;55.83;100262.81;445366;117;922690;-75
2021/08/03 01:19:22;;;;;;;;;;;;;;;25.36;55.89;100257.74;449853;111;923165;-77
2021/08/03 01:20:31;;;;;;;;;;;;;;;25.36;55.96;100252.16;460348;114;922644;-77
2021/08/03 01:21:37;;;;;;;;;;;;;;;25.38;55.95;100260.19;463015;113;922477;-77
2021/08/03 01:22:57;;;;;;;;;;;;;;;25.38;55.97;100260.19;463436;114;921491;-77
2021/08/03 01:24:17;;;;;;;;;;;;;;;25.37;56.10;100262.16;452899;116;921545;-77
2021/08/03 01:25:26;;;;;;;;;;;;;;;25.38;56.18;100254.61;449045;116;922357;-76
2021/08/03 01:26:41;;;;;;;;;;;;;;;25.37;56.30;100264.95;449141;118;921531;-76
2021/08/03 01:27:56;;;;;;;;;;;;;;;25.38;56.41;100262.98;448818;118;922729;-77
2021/08/03 01:29:01;;;;;;;;;;;;;;;25.39;56.49;100264.63;456015;116;922604;-76
2021/08/03 01:30:06;;;;;;;;;;;;;;;25.40;56.54;100261.53;453721;114;922525;-76
2021/08/03 01:31:17;;;;;;;;;;;;;;;25.41;56.59;100262.36;456142;116;921418;-76
2021/08/03 01:32:26;;;;;;;;;;;;;;;25.41;56.60;100256.78;453734;117;922731;-77
2021/08/03 01:33:32;;;;;;;;;;;;;;;25.40;56.60;100266.28;452701;117;922666;-77
2021/08/03 01:34:38;;;;;;;;;;;;;;;25.38;56.61;100246.23;453843;117;922578;-77
2021/08/03 01:35:43;;;;;;;;;;;;;;;25.37;56.62;100250.99;458658;116;922534;-76
2021/08/03 01:36:52;;;;;;;;;;;;;;;25.37;56.63;100252.95;458971;114;922632;-77
2021/08/03 01:37:58;;;;;;;;;;;;;;;25.35;56.64;100258.88;456820;114;922595;-77
2021/08/03 01:39:02;;;;;;;;;;;;;;;25.35;56.65;100267.25;451007;116;923171;-76
2021/08/03 01:40:08;;;;;;;;;;;;;;;25.35;56.56;100275.63;452627;118;922653;-75
2021/08/03 01:41:14;;;;;;;;;;;;;;;25.36;56.55;100273.66;447322;118;922733;-76
2021/08/03 01:42:18;;;;;;;;;;;;;;;25.32;56.50;100271.50;455605;116;922701;-77
2021/08/03 01:43:22;;;;;;;;;;;;;;;25.30;56.53;100267.39;451708;116;923064;-75
2021/08/03 01:44:26;;;;;;;;;;;;;;;25.27;56.54;100265.23;452480;116;923936;-76
2021/08/03 01:45:30;;;;;;;;;;;;;;;25.25;56.59;100273.91;452396;116;923141;-77
2021/08/03 01:46:35;;;;;;;;;;;;;;;25.24;56.63;100268.67;446231;116;924313;-77
2021/08/03 01:47:39;;;;;;;;;;;;;;;25.24;56.71;100268.67;453737;116;922715;-77
2021/08/03 01:48:44;;;;;;;;;;;;;;;25.27;56.74;100270.81;451086;115;923613;-77
2021/08/03 01:49:48;;;;;;;;;;;;;;;25.27;56.73;100263.27;444363;118;923347;-77
2021/08/03 01:50:53;;;;;;;;;;;;;;;25.28;56.76;100266.88;448813;116;922698;-77
2021/08/03 01:51:59;;;;;;;;;;;;;;;25.28;56.77;100258.52;451477;118;921605;-75
2021/08/03 01:53:04;;;;;;;;;;;;;;;25.26;56.83;100260.78;452238;116;923313;-77
2021/08/03 01:54:08;;;;;;;;;;;;;;;25.26;56.73;100267.20;455717;116;922815;-77
2021/08/03 01:55:12;;;;;;;;;;;;;;;25.27;56.70;100263.27;462672;112;924163;-77
2021/08/03 01:56:17;;;;;;;;;;;;;;;25.27;56.70;100274.42;463906;114;921921;-76
2021/08/03 01:57:21;;;;;;;;;;;;;;;25.28;56.71;100276.08;450756;118;922668;-76
2021/08/03 01:58:25;;;;;;;;;;;;;;;25.30;56.62;100272.98;456499;114;921579;-77
2021/08/03 01:59:32;;;;;;;;;;;;;;;25.28;56.59;100264.09;456632;116;921553;-77
2021/08/03 02:00:36;;;;;;;;;;;;;;;25.24;56.64;100261.13;451107;118;922629;-77
2021/08/03 02:01:42;;;;;;;;;;;;;;;25.21;56.75;100264.55;456691;116;922652;-77
2021/08/03 02:02:47;;;;;;;;;;;;;;;25.20;56.84;100271.26;452399;118;921552;-77
2021/08/03 02:03:52;;;;;;;;;;;;;;;25.19;56.94;100274.39;447122;118;921920;-79
2021/08/03 02:04:56;;;;;;;;;;;;;;;25.18;56.97;100270.77;454670;114;921509;-77
2021/08/03 02:06:02;;;;;;;;;;;;;;;25.16;57.04;100269.43;456019;116;921461;-77
2021/08/03 02:07:06;;;;;;;;;;;;;;;25.13;57.16;100273.70;447539;116;921468;-77
2021/08/03 02:08:10;;;;;;;;;;;;;;;25.13;57.21;100284.03;454858;116;921588;-77
2021/08/03 02:09:15;;;;;;;;;;;;;;;25.14;57.35;100285.69;454275;116;921625;-77
2021/08/03 02:10:20;;;;;;;;;;;;;;;25.14;57.41;100285.69;454650;116;921449;-77
2021/08/03 02:11:25;;;;;;;;;;;;;;;25.13;57.84;100295.20;455444;116;921454;-77
2021/08/03 02:12:31;;;;;;;;;;;;;;;25.10;57.86;100295.81;455338;116;921400;-77
2021/08/03 02:13:34;;;;;;;;;;;;;;;25.06;57.93;100301.22;455642;116;921516;-77
2021/08/03 02:14:44;;;;;;;;;;;;;;;25.03;58.04;100299.05;455621;116;921501;-78
2021/08/03 02:15:46;;;;;;;;;;;;;;;25.02;58.12;100302.17;455813;116;921660;-77
2021/08/03 02:16:50;;;;;;;;;;;;;;;25.01;58.11;100306.93;456720;116;922077;-76
2021/08/03 02:17:55;;;;;;;;;;;;;;;25.02;58.13;100308.58;456988;116;922661;-77
2021/08/03 02:19:07;;;;;;;;;;;;;;;25.04;58.11;100300.70;455230;116;922860;-77
2021/08/03 02:20:12;;;;;;;;;;;;;;;25.06;58.08;100308.77;453924;116;922727;-77
2021/08/03 02:21:18;;;;;;;;;;;;;;;25.08;58.08;100309.28;457121;116;922693;-78
2021/08/03 02:22:21;;;;;;;;;;;;;;;25.10;58.07;100315.34;451709;116;922928;-77
2021/08/03 02:23:27;;;;;;;;;;;;;;;25.12;57.98;100316.69;452336;115;922917;-77
2021/08/03 02:24:32;;;;;;;;;;;;;;;25.14;57.89;100316.38;451702;115;923154;-77
2021/08/03 02:25:36;;;;;;;;;;;;;;;25.13;57.87;100318.34;451837;116;922616;-77
2021/08/03 02:26:39;;;;;;;;;;;;;;;25.14;58.00;100308.01;452360;116;922665;-77
2021/08/03 02:27:44;;;;;;;;;;;;;;;25.14;58.22;100310.80;452993;115;922641;-77
2021/08/03 02:28:48;;;;;;;;;;;;;;;25.11;58.22;100317.83;452533;116;923147;-77
2021/08/03 02:29:52;;;;;;;;;;;;;;;25.09;58.48;100311.73;448137;117;923924;-77
2021/08/03 02:30:57;;;;;;;;;;;;;;;25.06;58.81;100314.34;448799;116;922613;-77
2021/08/03 02:32:16;;;;;;;;;;;;;;;25.02;58.73;100316.13;453797;116;922686;-76
2021/08/03 02:33:21;;;;;;;;;;;;;;;24.97;58.85;100319.88;454805;107;920832;-78
2021/08/03 02:34:33;;;;;;;;;;;;;;;24.95;59.03;100313.77;456220;114;922671;-78
2021/08/03 02:35:41;;;;;;;;;;;;;;;24.93;59.07;100307.67;458458;114;922635;-76
2021/08/03 02:36:47;;;;;;;;;;;;;;;24.92;59.11;100315.22;450863;116;922733;-77
2021/08/03 02:37:54;;;;;;;;;;;;;;;24.92;59.12;100308.81;451181;115;921487;-77
2021/08/03 02:38:59;;;;;;;;;;;;;;;24.92;58.99;100306.84;459130;114;922688;-77
2021/08/03 02:40:04;;;;;;;;;;;;;;;24.93;58.98;100299.31;458485;114;922628;-78
2021/08/03 02:41:10;;;;;;;;;;;;;;;24.93;58.91;100310.47;451375;116;922729;-77
2021/08/03 02:42:15;;;;;;;;;;;;;;;24.95;58.90;100313.77;446955;116;922673;-76
2021/08/03 02:43:20;;;;;;;;;;;;;;;24.95;58.86;100313.77;455269;114;922699;-76
2021/08/03 02:44:26;;;;;;;;;;;;;;;24.97;58.79;100311.50;454972;114;922680;-78
2021/08/03 02:45:30;;;;;;;;;;;;;;;24.98;58.73;100309.51;454879;115;922591;-77
2021/08/03 02:46:36;;;;;;;;;;;;;;;25.00;58.68;100315.61;454741;115;923201;-78
2021/08/03 02:47:47;;;;;;;;;;;;;;;24.99;58.67;100311.98;456738;114;922720;-78
2021/08/03 02:48:59;;;;;;;;;;;;;;;24.99;58.59;100317.56;457687;114;922742;-77
2021/08/03 02:49:52;;;;;;;;;;;;;;;25.00;58.53;100308.06;454820;114;921556;-77
2021/08/03 02:50:57;;;;;;;;;;;;;;;25.00;58.49;100310.86;440241;120;921470;-77
2021/08/03 02:52:01;;;;;;;;;;;;;;;24.99;58.45;100314.78;452559;117;921470;-77
2021/08/03 02:53:06;;;;;;;;;;;;;;;24.99;58.46;100313.95;453302;115;921685;-77
2021/08/03 02:54:20;;;;;;;;;;;;;;;24.99;58.49;100309.20;458132;114;921656;-77
2021/08/03 02:55:25;;;;;;;;;;;;;;;24.99;58.57;100311.16;462504;113;921514;-76
2021/08/03 02:56:30;;;;;;;;;;;;;;;24.98;58.69;100307.55;453212;115;921549;-75
2021/08/03 02:57:35;;;;;;;;;;;;;;;24.98;58.77;100306.72;455051;114;921516;-79
2021/08/03 02:58:40;;;;;;;;;;;;;;;24.95;58.82;100313.77;459551;114;921453;-77
2021/08/03 02:59:45;;;;;;;;;;;;;;;24.96;58.86;100315.42;459550;114;921380;-77
2021/08/03 03:00:50;;;;;;;;;;;;;;;24.95;58.93;100316.56;451776;115;922327;-75
2021/08/03 03:01:54;;;;;;;;;;;;;;;24.96;59.00;100318.22;451343;115;921642;-77
2021/08/03 03:03:00;;;;;;;;;;;;;;;24.97;58.97;100314.30;454640;113;921501;-77
2021/08/03 03:04:08;;;;;;;;;;;;;;;24.98;58.93;100321.50;454712;113;921463;-77
2021/08/03 03:05:14;;;;;;;;;;;;;;;25.00;58.79;100312.81;455960;114;921482;-77
2021/08/03 03:06:19;;;;;;;;;;;;;;;25.01;58.68;100320.88;457792;114;921373;-78
2021/08/03 03:07:25;;;;;;;;;;;;;;;25.03;58.66;100323.36;456675;113;923603;-77
2021/08/03 03:08:30;;;;;;;;;;;;;;;25.03;58.59;100326.95;454743;114;921571;-77
2021/08/03 03:09:35;;;;;;;;;;;;;;;25.05;58.54;100327.46;457048;113;921475;-78
2021/08/03 03:10:40;;;;;;;;;;;;;;;25.06;58.54;100328.29;458276;114;922649;-78
2021/08/03 03:11:45;;;;;;;;;;;;;;;25.08;58.59;100329.63;462183;113;922649;-78
2021/08/03 03:12:50;;;;;;;;;;;;;;;25.09;58.62;100334.05;462574;113;923153;-78
2021/08/03 03:13:55;;;;;;;;;;;;;;;25.08;58.67;100338.00;451117;116;922651;-78
2021/08/03 03:15:01;;;;;;;;;;;;;;;25.09;58.73;100333.22;451093;116;923010;-76
2021/08/03 03:16:05;;;;;;;;;;;;;;;25.09;58.74;100327.64;457779;115;923031;-76
2021/08/03 03:17:10;;;;;;;;;;;;;;;25.10;58.69;100334.88;457435;114;922716;-76
2021/08/03 03:18:15;;;;;;;;;;;;;;;25.10;58.65;100335.70;459715;113;922777;-76
2021/08/03 03:19:21;;;;;;;;;;;;;;;25.11;58.54;100344.90;460725;114;922626;-76
2021/08/03 03:20:25;;;;;;;;;;;;;;;25.12;58.41;100347.38;464183;113;922671;-76
2021/08/03 03:21:29;;;;;;;;;;;;;;;25.13;58.36;100351.00;462914;113;922685;-77
2021/08/03 03:22:37;;;;;;;;;;;;;;;25.13;58.34;100349.03;457023;114;922728;-77
2021/08/03 03:23:43;;;;;;;;;;;;;;;25.14;58.38;100345.08;454870;113;923649;-78
2021/08/03 03:24:46;;;;;;;;;;;;;;;25.16;58.45;100351.18;457182;115;922698;-78
2021/08/03 03:25:51;;;;;;;;;;;;;;;25.18;58.43;100346.12;455999;114;922732;-77
2021/08/03 03:26:55;;;;;;;;;;;;;;;25.19;58.34;100344.16;461614;113;922630;-76
2021/08/03 03:28:00;;;;;;;;;;;;;;;25.20;58.24;100349.39;452455;116;922696;-76
2021/08/03 03:29:04;;;;;;;;;;;;;;;25.21;58.18;100345.47;451732;116;923501;-78
2021/08/03 03:30:09;;;;;;;;;;;;;;;25.22;58.18;100344.33;458663;113;922595;-78
2021/08/03 03:31:13;;;;;;;;;;;;;;;25.22;58.22;100349.08;457735;113;922468;-78
2021/08/03 03:32:17;;;;;;;;;;;;;;;25.22;58.23;100343.50;458314;115;922750;-77
2021/08/03 03:33:20;;;;;;;;;;;;;;;25.23;58.20;100357.14;458787;115;922689;-76
2021/08/03 03:34:25;;;;;;;;;;;;;;;25.26;58.18;100362.08;455718;114;922582;-76
2021/08/03 03:35:29;;;;;;;;;;;;;;;25.29;58.28;100357.84;456539;115;921558;-78
2021/08/03 03:36:34;;;;;;;;;;;;;;;25.32;58.31;100357.19;457103;114;922656;-76
2021/08/03 03:37:38;;;;;;;;;;;;;;;25.36;58.29;100355.44;456772;114;923264;-77
2021/08/03 03:38:43;;;;;;;;;;;;;;;25.41;58.14;100362.84;453352;114;921448;-77
2021/08/03 03:39:47;;;;;;;;;;;;;;;25.43;58.08;100350.20;449692;117;922726;-77
2021/08/03 03:40:51;;;;;;;;;;;;;;;25.45;58.05;100352.69;449658;116;921502;-77
2021/08/03 03:42:01;;;;;;;;;;;;;;;25.47;58.05;100353.99;451373;114;921443;-78
2021/08/03 03:43:03;;;;;;;;;;;;;;;25.49;58.04;100353.69;453664;114;921452;-77
2021/08/03 03:44:07;;;;;;;;;;;;;;;25.49;58.09;100353.69;444941;116;921607;-76
2021/08/03 03:45:12;;;;;;;;;;;;;;;25.50;58.13;100355.34;450587;118;921503;-77
2021/08/03 03:46:17;;;;;;;;;;;;;;;25.52;58.17;100362.27;449280;116;921451;-77
2021/08/03 03:47:23;;;;;;;;;;;;;;;25.55;58.24;100360.78;449360;117;921710;-76
2021/08/03 03:48:28;;;;;;;;;;;;;;;25.57;58.28;100362.16;450030;117;921501;-77
2021/08/03 03:49:39;;;;;;;;;;;;;;;25.60;58.03;100352.30;452964;116;921515;-78
2021/08/03 03:50:47;;;;;;;;;;;;;;;25.62;57.87;100352.81;454529;114;921422;-77
2021/08/03 03:51:50;;;;;;;;;;;;;;;25.63;57.81;100360.88;455258;114;921663;-77
2021/08/03 03:53:09;;;;;;;;;;;;;;;25.64;57.73;100361.67;455735;114;921601;-77
2021/08/03 03:54:14;;;;;;;;;;;;;;;25.65;57.61;100368.91;441552;117;921391;-77
2021/08/03 03:55:19;;;;;;;;;;;;;;;25.61;57.63;100363.16;441883;118;921643;-78
2021/08/03 03:56:24;;;;;;;;;;;;;;;25.60;57.75;100371.84;439802;120;922647;-77
2021/08/03 03:57:29;;;;;;;;;;;;;;;25.61;57.91;100365.13;432869;120;923196;-77
2021/08/03 03:58:40;;;;;;;;;;;;;;;25.62;57.98;100364.81;434416;120;922691;-76
2021/08/03 03:59:45;;;;;;;;;;;;;;;25.66;58.04;100365.81;440301;119;922650;-76
2021/08/03 04:00:50;;;;;;;;;;;;;;;25.69;57.88;100367.95;438445;118;924254;-76
2021/08/03 04:01:55;;;;;;;;;;;;;;;25.73;57.88;100366.19;436516;121;923101;-78
2021/08/03 04:03:01;;;;;;;;;;;;;;;25.76;57.86;100364.70;436654;120;923577;-79
2021/08/03 04:04:05;;;;;;;;;;;;;;;25.79;57.69;100363.25;439465;118;922637;-77
2021/08/03 04:05:11;;;;;;;;;;;;;;;25.81;57.65;100363.73;439712;118;922558;-77
2021/08/03 04:06:15;;;;;;;;;;;;;;;25.83;57.50;100364.25;439092;120;922675;-76
2021/08/03 04:07:19;;;;;;;;;;;;;;;25.84;57.41;100366.73;440307;118;922664;-78
2021/08/03 04:08:23;;;;;;;;;;;;;;;25.83;57.45;100361.45;440815;119;922808;-79
2021/08/03 04:09:26;;;;;;;;;;;;;;;25.83;57.47;100365.08;441663;118;922505;-78
2021/08/03 04:10:33;;;;;;;;;;;;;;;25.84;57.53;100365.91;445870;118;922675;-78
2021/08/03 04:11:39;;;;;;;;;;;;;;;25.84;57.53;100361.14;449820;116;922694;-77
2021/08/03 04:12:42;;;;;;;;;;;;;;;25.84;57.28;100368.70;439974;118;922667;-78
2021/08/03 04:13:48;;;;;;;;;;;;;;;25.82;57.33;100369.01;447567;116;922738;-78
2021/08/03 04:14:52;;;;;;;;;;;;;;;25.83;57.34;100373.45;432124;123;922683;-78
2021/08/03 04:15:56;;;;;;;;;;;;;;;25.81;57.41;100377.70;450908;109;920872;-79
2021/08/03 04:17:00;;;;;;;;;;;;;;;25.77;57.43;100371.11;461470;112;923090;-78
2021/08/03 04:18:05;;;;;;;;;;;;;;;25.74;57.51;100367.02;461552;114;922700;-77
2021/08/03 04:19:11;;;;;;;;;;;;;;;25.72;57.61;100370.13;461061;114;922744;-77
2021/08/03 04:20:14;;;;;;;;;;;;;;;25.71;57.54;100373.22;459648;112;922711;-77
2021/08/03 04:21:18;;;;;;;;;;;;;;;25.69;57.74;100375.53;460772;113;922596;-77
2021/08/03 04:22:21;;;;;;;;;;;;;;;25.67;57.79;100372.22;462386;112;922635;-78
2021/08/03 04:23:25;;;;;;;;;;;;;;;25.66;57.76;100370.57;464877;114;922698;-77
2021/08/03 04:24:28;;;;;;;;;;;;;;;25.66;57.75;100373.36;464114;112;922722;-78
2021/08/03 04:25:31;;;;;;;;;;;;;;;25.66;57.74;100374.19;464840;112;922578;-79
2021/08/03 04:26:36;;;;;;;;;;;;;;;25.66;57.18;100376.16;465088;112;922769;-76
2021/08/03 04:27:39;;;;;;;;;;;;;;;25.64;57.15;100378.44;465464;114;922675;-78
2021/08/03 04:28:42;;;;;;;;;;;;;;;25.63;57.02;100374.02;463284;113;922685;-78
2021/08/03 04:29:46;;;;;;;;;;;;;;;25.63;57.06;100372.05;464401;112;922736;-78
2021/08/03 04:30:49;;;;;;;;;;;;;;;25.66;57.19;100376.16;464191;112;922664;-78
2021/08/03 04:31:53;;;;;;;;;;;;;;;25.67;56.45;100372.22;463378;114;922714;-77
2021/08/03 04:32:56;;;;;;;;;;;;;;;25.68;56.26;100365.50;462004;112;923190;-78
2021/08/03 04:34:00;;;;;;;;;;;;;;;25.68;56.24;100368.30;462822;112;922620;-76
2021/08/03 04:35:04;;;;;;;;;;;;;;;25.68;56.38;100368.30;463466;114;921505;-78
2021/08/03 04:36:07;;;;;;;;;;;;;;;25.68;56.50;100366.33;463041;114;921425;-77
2021/08/03 04:37:10;;;;;;;;;;;;;;;25.70;56.64;100375.19;462983;112;921560;-78
2021/08/03 04:38:13;;;;;;;;;;;;;;;25.73;56.69;100373.73;462468;112;921420;-78
2021/08/03 04:39:17;;;;;;;;;;;;;;;25.75;56.06;100374.22;462070;113;921519;-77
2021/08/03 04:40:23;;;;;;;;;;;;;;;25.78;56.10;100370.80;462231;114;921565;-78
2021/08/03 04:41:26;;;;;;;;;;;;;;;25.81;56.11;100363.73;461469;112;921472;-78
2021/08/03 04:42:29;;;;;;;;;;;;;;;25.84;56.25;100366.73;465005;112;921509;-78
2021/08/03 04:43:33;;;;;;;;;;;;;;;25.88;56.29;100372.48;465283;114;921330;-78
2021/08/03 04:44:36;;;;;;;;;;;;;;;25.91;56.13;100369.06;465411;114;921593;-77
2021/08/03 04:45:39;;;;;;;;;;;;;;;25.93;56.01;100358.38;465214;112;921439;-77
2021/08/03 04:46:43;;;;;;;;;;;;;;;25.96;55.75;100368.92;465330;112;921614;-77
2021/08/03 04:47:47;;;;;;;;;;;;;;;25.98;54.86;100369.41;464622;114;921291;-77
2021/08/03 04:48:51;;;;;;;;;;;;;;;26.00;54.93;100370.73;463892;114;921458;-77
2021/08/03 04:49:54;;;;;;;;;;;;;;;26.02;54.91;100373.22;463482;112;922711;-79
2021/08/03 04:50:59;;;;;;;;;;;;;;;26.04;54.90;100370.91;463896;112;921444;-78
2021/08/03 04:52:04;;;;;;;;;;;;;;;26.05;54.96;100381.77;463660;114;922678;-78
2021/08/03 04:53:08;;;;;;;;;;;;;;;26.06;54.09;100368.63;462945;114;922681;-79
2021/08/03 04:54:11;;;;;;;;;;;;;;;26.06;54.12;100372.25;462931;112;921515;-78
2021/08/03 04:55:14;;;;;;;;;;;;;;;26.06;54.15;100372.25;463453;112;922708;-78
2021/08/03 04:56:18;;;;;;;;;;;;;;;26.06;53.78;100379.80;462787;113;922641;-77
2021/08/03 04:57:21;;;;;;;;;;;;;;;26.05;53.97;100365.00;461916;114;922630;-77
2021/08/03 04:58:24;;;;;;;;;;;;;;;26.05;54.30;100376.19;461700;112;922694;-77
2021/08/03 04:59:28;;;;;;;;;;;;;;;26.06;54.53;100379.80;461895;112;923187;-76
2021/08/03 05:00:31;;;;;;;;;;;;;;;26.07;54.71;100378.66;460193;114;922674;-77
2021/08/03 05:01:35;;;;;;;;;;;;;;;26.09;54.74;100384.73;461217;114;921474;-77
2021/08/03 05:02:39;;;;;;;;;;;;;;;26.09;54.75;100379.97;461795;112;924800;-77
2021/08/03 05:03:43;;;;;;;;;;;;;;;26.09;54.91;100391.15;464313;114;922712;-77
2021/08/03 05:04:46;;;;;;;;;;;;;;;26.10;54.93;100380.80;464588;114;923799;-76
2021/08/03 05:05:50;;;;;;;;;;;;;;;26.10;54.99;100383.59;464048;113;922938;-78
2021/08/03 05:06:53;;;;;;;;;;;;;;;26.10;55.14;100386.39;463737;112;922652;-77
2021/08/03 05:07:58;;;;;;;;;;;;;;;26.11;55.24;100380.48;463998;112;922684;-77
2021/08/03 05:09:01;;;;;;;;;;;;;;;26.14;55.01;100384.59;464811;113;922703;-76
2021/08/03 05:10:06;;;;;;;;;;;;;;;26.15;54.39;100380.65;464680;112;922688;-79
2021/08/03 05:11:09;;;;;;;;;;;;;;;26.16;54.77;100383.13;464301;111;922789;-78
2021/08/03 05:12:12;;;;;;;;;;;;;;;26.18;54.46;100381.98;462947;112;924235;-77
2021/08/03 05:13:15;;;;;;;;;;;;;;;26.19;54.50;100384.44;462924;114;922762;-77
2021/08/03 05:14:19;;;;;;;;;;;;;;;26.21;54.17;100387.74;462795;112;923574;-76
2021/08/03 05:15:23;;;;;;;;;;;;;;;26.22;54.16;100382.98;463494;114;922682;-78
2021/08/03 05:16:29;;;;;;;;;;;;;;;26.24;54.24;100384.34;462737;114;922582;-77
2021/08/03 05:17:32;;;;;;;;;;;;;;;26.25;53.94;100383.17;462657;114;922642;-77
2021/08/03 05:18:35;;;;;;;;;;;;;;;26.28;54.03;100384.52;461622;114;923144;-75
2021/08/03 05:19:39;;;;;;;;;;;;;;;26.29;54.06;100386.16;461610;114;923183;-78
2021/08/03 05:20:44;;;;;;;;;;;;;;;26.28;53.90;100384.52;462033;113;922695;-79
2021/08/03 05:21:47;;;;;;;;;;;;;;;26.30;54.02;100385.02;461417;112;922770;-77
2021/08/03 05:22:50;;;;;;;;;;;;;;;26.32;54.19;100388.30;460941;112;923139;-78
2021/08/03 05:23:54;;;;;;;;;;;;;;;26.34;54.31;100388.81;461211;114;922721;-77
2021/08/03 05:25:02;;;;;;;;;;;;;;;26.36;54.47;100380.91;464615;114;922665;-78
2021/08/03 05:26:03;;;;;;;;;;;;;;;26.38;54.44;100378.62;464864;112;923194;-78
2021/08/03 05:27:06;;;;;;;;;;;;;;;26.41;54.11;100377.98;464979;112;922681;-78
2021/08/03 05:28:10;;;;;;;;;;;;;;;26.43;54.25;100376.49;464614;114;922653;-76
2021/08/03 05:29:13;;;;;;;;;;;;;;;26.46;54.19;100373.03;449395;116;923323;-78
2021/08/03 05:30:16;;;;;;;;;;;;;;;26.47;54.09;100376.66;452597;112;924220;-79
2021/08/03 05:31:20;;;;;;;;;;;;;;;26.49;53.57;100375.20;464324;112;922663;-79